sensor_id;sensor_type;location;lat;lon;timestamp;P1;durP1;ratioP1;P2;durP2;ratioP2
63218;SDS011;49320;52.512;13.448;2024-01-06T00:00:14;34.95;;;25.95;;
63218;SDS011;49320;52.512;13.448;2024-01-06T00:02:43;32.40;;;25.27;;
63218;SDS011;49320;52.512;13.448;2024-01-06T00:05:09;34.97;;;26.42;;
63218;SDS011;49320;52.512;13.448;2024-01-06T00:07:37;32.78;;;25.75;;
63218;SDS011;49320;52.512;13.448;2024-01-06T00:10:04;31.38;;;24.73;;
63218;SDS011;49320;52.512;13.448;2024-01-06T00:12:31;30.90;;;26.13;;
63218;SDS011;49320;52.512;13.448;2024-01-06T00:14:58;32.78;;;24.58;;
63218;SDS011;49320;52.512;13.448;2024-01-06T00:17:26;30.85;;;23.38;;
63218;SDS011;49320;52.512;13.448;2024-01-06T00:19:52;31.75;;;24.80;;
63218;SDS011;49320;52.512;13.448;2024-01-06T00:22:20;29.35;;;23.30;;
63218;SDS011;49320;52.512;13.448;2024-01-06T00:24:47;27.02;;;22.27;;
63218;SDS011;49320;52.512;13.448;2024-01-06T00:27:15;27.00;;;22.67;;
63218;SDS011;49320;52.512;13.448;2024-01-06T00:29:42;30.90;;;23.42;;
63218;SDS011;49320;52.512;13.448;2024-01-06T00:32:09;35.67;;;23.83;;
63218;SDS011;49320;52.512;13.448;2024-01-06T00:34:36;29.63;;;23.17;;
63218;SDS011;49320;52.512;13.448;2024-01-06T00:37:04;29.02;;;23.27;;
63218;SDS011;49320;52.512;13.448;2024-01-06T00:39:31;30.58;;;23.20;;
63218;SDS011;49320;52.512;13.448;2024-01-06T00:41:58;29.60;;;21.95;;
63218;SDS011;49320;52.512;13.448;2024-01-06T00:44:25;28.52;;;22.33;;
63218;SDS011;49320;52.512;13.448;2024-01-06T00:46:52;28.55;;;22.08;;
63218;SDS011;49320;52.512;13.448;2024-01-06T00:49:19;27.70;;;20.35;;
63218;SDS011;49320;52.512;13.448;2024-01-06T00:51:46;30.45;;;21.88;;
63218;SDS011;49320;52.512;13.448;2024-01-06T00:54:14;30.40;;;22.90;;
63218;SDS011;49320;52.512;13.448;2024-01-06T00:56:41;27.50;;;21.40;;
63218;SDS011;49320;52.512;13.448;2024-01-06T00:59:09;29.80;;;21.45;;
63218;SDS011;49320;52.512;13.448;2024-01-06T01:01:36;25.25;;;20.63;;
63218;SDS011;49320;52.512;13.448;2024-01-06T01:04:03;28.58;;;22.02;;
63218;SDS011;49320;52.512;13.448;2024-01-06T01:06:31;28.10;;;22.33;;
63218;SDS011;49320;52.512;13.448;2024-01-06T01:08:58;28.35;;;20.65;;
63218;SDS011;49320;52.512;13.448;2024-01-06T01:11:25;29.60;;;21.73;;
63218;SDS011;49320;52.512;13.448;2024-01-06T01:13:52;28.55;;;20.77;;
63218;SDS011;49320;52.512;13.448;2024-01-06T01:16:20;27.13;;;21.73;;
63218;SDS011;49320;52.512;13.448;2024-01-06T01:18:46;29.75;;;22.45;;
63218;SDS011;49320;52.512;13.448;2024-01-06T01:21:14;27.83;;;23.08;;
63218;SDS011;49320;52.512;13.448;2024-01-06T01:23:41;27.38;;;21.58;;
63218;SDS011;49320;52.512;13.448;2024-01-06T01:26:09;29.98;;;21.45;;
63218;SDS011;49320;52.512;13.448;2024-01-06T01:28:36;23.48;;;20.15;;
63218;SDS011;49320;52.512;13.448;2024-01-06T01:31:03;28.88;;;20.98;;
63218;SDS011;49320;52.512;13.448;2024-01-06T01:33:31;28.48;;;21.75;;
63218;SDS011;49320;52.512;13.448;2024-01-06T01:35:58;30.10;;;21.98;;
63218;SDS011;49320;52.512;13.448;2024-01-06T01:38:28;25.17;;;20.30;;
63218;SDS011;49320;52.512;13.448;2024-01-06T01:40:55;29.60;;;21.65;;
63218;SDS011;49320;52.512;13.448;2024-01-06T01:43:22;26.80;;;20.85;;
63218;SDS011;49320;52.512;13.448;2024-01-06T01:45:55;26.25;;;20.25;;
63218;SDS011;49320;52.512;13.448;2024-01-06T01:48:23;26.63;;;20.17;;
63218;SDS011;49320;52.512;13.448;2024-01-06T01:50:52;29.30;;;20.63;;
63218;SDS011;49320;52.512;13.448;2024-01-06T01:53:20;26.33;;;20.85;;
63218;SDS011;49320;52.512;13.448;2024-01-06T01:55:50;27.83;;;20.85;;
63218;SDS011;49320;52.512;13.448;2024-01-06T01:58:18;27.50;;;21.88;;
63218;SDS011;49320;52.512;13.448;2024-01-06T02:00:45;25.48;;;19.73;;
63218;SDS011;49320;52.512;13.448;2024-01-06T02:03:13;28.83;;;20.90;;
63218;SDS011;49320;52.512;13.448;2024-01-06T02:05:41;26.75;;;20.70;;
63218;SDS011;49320;52.512;13.448;2024-01-06T02:08:08;26.13;;;20.50;;
63218;SDS011;49320;52.512;13.448;2024-01-06T02:10:35;26.52;;;20.65;;
63218;SDS011;49320;52.512;13.448;2024-01-06T02:13:09;24.60;;;18.80;;
63218;SDS011;49320;52.512;13.448;2024-01-06T02:15:37;26.90;;;21.15;;
63218;SDS011;49320;52.512;13.448;2024-01-06T02:18:05;25.83;;;20.08;;
63218;SDS011;49320;52.512;13.448;2024-01-06T02:20:33;25.67;;;19.95;;
63218;SDS011;49320;52.512;13.448;2024-01-06T02:23:01;25.20;;;20.02;;
63218;SDS011;49320;52.512;13.448;2024-01-06T02:25:28;27.50;;;20.65;;
63218;SDS011;49320;52.512;13.448;2024-01-06T02:27:56;23.85;;;19.33;;
63218;SDS011;49320;52.512;13.448;2024-01-06T02:30:23;25.65;;;18.90;;
63218;SDS011;49320;52.512;13.448;2024-01-06T02:32:51;26.60;;;19.92;;
63218;SDS011;49320;52.512;13.448;2024-01-06T02:35:17;26.80;;;19.33;;
63218;SDS011;49320;52.512;13.448;2024-01-06T02:37:46;26.30;;;20.52;;
63218;SDS011;49320;52.512;13.448;2024-01-06T02:40:13;29.98;;;19.42;;
63218;SDS011;49320;52.512;13.448;2024-01-06T02:42:40;24.27;;;19.83;;
63218;SDS011;49320;52.512;13.448;2024-01-06T02:45:07;25.42;;;19.55;;
63218;SDS011;49320;52.512;13.448;2024-01-06T02:47:38;25.23;;;19.42;;
63218;SDS011;49320;52.512;13.448;2024-01-06T02:50:05;28.38;;;19.60;;
63218;SDS011;49320;52.512;13.448;2024-01-06T02:52:32;25.35;;;19.23;;
63218;SDS011;49320;52.512;13.448;2024-01-06T02:54:59;26.00;;;19.15;;
63218;SDS011;49320;52.512;13.448;2024-01-06T02:57:28;24.88;;;19.23;;
63218;SDS011;49320;52.512;13.448;2024-01-06T02:59:57;26.02;;;20.23;;
63218;SDS011;49320;52.512;13.448;2024-01-06T03:02:24;26.52;;;19.95;;
63218;SDS011;49320;52.512;13.448;2024-01-06T03:04:51;25.63;;;19.60;;
63218;SDS011;49320;52.512;13.448;2024-01-06T03:07:18;28.23;;;20.63;;
63218;SDS011;49320;52.512;13.448;2024-01-06T03:09:45;27.25;;;20.95;;
63218;SDS011;49320;52.512;13.448;2024-01-06T03:12:13;27.00;;;20.33;;
63218;SDS011;49320;52.512;13.448;2024-01-06T03:14:40;25.60;;;19.85;;
63218;SDS011;49320;52.512;13.448;2024-01-06T03:17:07;26.33;;;19.48;;
63218;SDS011;49320;52.512;13.448;2024-01-06T03:19:36;26.85;;;21.08;;
63218;SDS011;49320;52.512;13.448;2024-01-06T03:22:03;27.05;;;20.45;;
63218;SDS011;49320;52.512;13.448;2024-01-06T03:24:31;27.90;;;20.63;;
63218;SDS011;49320;52.512;13.448;2024-01-06T03:26:58;27.58;;;20.48;;
63218;SDS011;49320;52.512;13.448;2024-01-06T03:29:25;28.25;;;19.77;;
63218;SDS011;49320;52.512;13.448;2024-01-06T03:31:53;28.00;;;20.05;;
63218;SDS011;49320;52.512;13.448;2024-01-06T03:34:20;27.75;;;21.45;;
63218;SDS011;49320;52.512;13.448;2024-01-06T03:36:47;29.52;;;21.75;;
63218;SDS011;49320;52.512;13.448;2024-01-06T03:39:14;29.80;;;20.67;;
63218;SDS011;49320;52.512;13.448;2024-01-06T03:41:42;29.00;;;20.52;;
63218;SDS011;49320;52.512;13.448;2024-01-06T03:44:09;27.15;;;20.08;;
63218;SDS011;49320;52.512;13.448;2024-01-06T03:46:36;25.75;;;20.75;;
63218;SDS011;49320;52.512;13.448;2024-01-06T03:49:04;28.98;;;20.88;;
63218;SDS011;49320;52.512;13.448;2024-01-06T03:51:31;26.85;;;20.48;;
63218;SDS011;49320;52.512;13.448;2024-01-06T03:53:58;28.90;;;20.85;;
63218;SDS011;49320;52.512;13.448;2024-01-06T03:56:25;29.83;;;21.88;;
63218;SDS011;49320;52.512;13.448;2024-01-06T03:58:52;29.45;;;21.23;;
63218;SDS011;49320;52.512;13.448;2024-01-06T04:01:19;27.60;;;20.85;;
63218;SDS011;49320;52.512;13.448;2024-01-06T04:03:47;28.25;;;20.95;;
63218;SDS011;49320;52.512;13.448;2024-01-06T04:06:15;29.75;;;19.88;;
63218;SDS011;49320;52.512;13.448;2024-01-06T04:08:42;29.40;;;21.48;;
63218;SDS011;49320;52.512;13.448;2024-01-06T04:11:08;27.50;;;20.20;;
63218;SDS011;49320;52.512;13.448;2024-01-06T04:13:36;28.33;;;20.75;;
63218;SDS011;49320;52.512;13.448;2024-01-06T04:16:03;27.73;;;20.73;;
63218;SDS011;49320;52.512;13.448;2024-01-06T04:18:31;28.65;;;21.27;;
63218;SDS011;49320;52.512;13.448;2024-01-06T04:20:58;26.77;;;20.02;;
63218;SDS011;49320;52.512;13.448;2024-01-06T04:23:25;27.05;;;20.42;;
63218;SDS011;49320;52.512;13.448;2024-01-06T04:25:52;29.60;;;19.48;;
63218;SDS011;49320;52.512;13.448;2024-01-06T04:28:20;31.52;;;21.15;;
63218;SDS011;49320;52.512;13.448;2024-01-06T04:30:47;27.92;;;20.73;;
63218;SDS011;49320;52.512;13.448;2024-01-06T04:33:14;27.67;;;21.27;;
63218;SDS011;49320;52.512;13.448;2024-01-06T04:35:41;28.40;;;22.15;;
63218;SDS011;49320;52.512;13.448;2024-01-06T04:38:08;30.05;;;21.52;;
63218;SDS011;49320;52.512;13.448;2024-01-06T04:40:35;28.77;;;22.48;;
63218;SDS011;49320;52.512;13.448;2024-01-06T04:43:02;31.30;;;22.73;;
63218;SDS011;49320;52.512;13.448;2024-01-06T04:45:29;29.73;;;21.73;;
63218;SDS011;49320;52.512;13.448;2024-01-06T04:47:57;31.75;;;24.27;;
63218;SDS011;49320;52.512;13.448;2024-01-06T04:50:24;28.95;;;21.05;;
63218;SDS011;49320;52.512;13.448;2024-01-06T04:52:51;30.77;;;21.40;;
63218;SDS011;49320;52.512;13.448;2024-01-06T04:55:19;30.27;;;23.10;;
63218;SDS011;49320;52.512;13.448;2024-01-06T04:57:45;31.05;;;23.23;;
63218;SDS011;49320;52.512;13.448;2024-01-06T05:00:14;32.47;;;22.77;;
63218;SDS011;49320;52.512;13.448;2024-01-06T05:02:41;31.73;;;22.17;;
63218;SDS011;49320;52.512;13.448;2024-01-06T05:05:09;31.65;;;21.92;;
63218;SDS011;49320;52.512;13.448;2024-01-06T05:07:36;31.85;;;22.88;;
63218;SDS011;49320;52.512;13.448;2024-01-06T05:10:03;31.95;;;23.63;;
63218;SDS011;49320;52.512;13.448;2024-01-06T05:12:32;33.35;;;23.40;;
63218;SDS011;49320;52.512;13.448;2024-01-06T05:14:59;36.95;;;24.38;;
63218;SDS011;49320;52.512;13.448;2024-01-06T05:17:26;32.75;;;22.67;;
63218;SDS011;49320;52.512;13.448;2024-01-06T05:19:53;30.67;;;23.17;;
63218;SDS011;49320;52.512;13.448;2024-01-06T05:22:21;32.25;;;24.25;;
63218;SDS011;49320;52.512;13.448;2024-01-06T05:24:48;36.22;;;24.85;;
63218;SDS011;49320;52.512;13.448;2024-01-06T05:27:19;33.72;;;24.35;;
63218;SDS011;49320;52.512;13.448;2024-01-06T05:29:46;35.03;;;25.05;;
63218;SDS011;49320;52.512;13.448;2024-01-06T05:32:15;32.92;;;23.60;;
63218;SDS011;49320;52.512;13.448;2024-01-06T05:34:44;32.88;;;25.00;;
63218;SDS011;49320;52.512;13.448;2024-01-06T05:37:12;34.45;;;25.13;;
63218;SDS011;49320;52.512;13.448;2024-01-06T05:39:39;35.95;;;24.30;;
63218;SDS011;49320;52.512;13.448;2024-01-06T05:42:08;31.33;;;23.42;;
63218;SDS011;49320;52.512;13.448;2024-01-06T05:44:38;35.60;;;24.88;;
63218;SDS011;49320;52.512;13.448;2024-01-06T05:47:05;35.08;;;24.70;;
63218;SDS011;49320;52.512;13.448;2024-01-06T05:49:32;30.38;;;21.63;;
63218;SDS011;49320;52.512;13.448;2024-01-06T05:51:59;33.13;;;23.23;;
63218;SDS011;49320;52.512;13.448;2024-01-06T05:54:27;35.40;;;24.60;;
63218;SDS011;49320;52.512;13.448;2024-01-06T05:56:55;35.63;;;24.73;;
63218;SDS011;49320;52.512;13.448;2024-01-06T05:59:22;38.38;;;26.23;;
63218;SDS011;49320;52.512;13.448;2024-01-06T06:01:48;32.80;;;23.50;;
63218;SDS011;49320;52.512;13.448;2024-01-06T06:04:16;30.77;;;22.38;;
63218;SDS011;49320;52.512;13.448;2024-01-06T06:06:43;33.75;;;24.38;;
63218;SDS011;49320;52.512;13.448;2024-01-06T06:09:10;30.52;;;23.38;;
63218;SDS011;49320;52.512;13.448;2024-01-06T06:11:39;31.25;;;24.10;;
63218;SDS011;49320;52.512;13.448;2024-01-06T06:14:05;33.67;;;23.95;;
63218;SDS011;49320;52.512;13.448;2024-01-06T06:16:32;32.72;;;23.83;;
63218;SDS011;49320;52.512;13.448;2024-01-06T06:19:00;34.97;;;24.40;;
63218;SDS011;49320;52.512;13.448;2024-01-06T06:21:28;32.53;;;24.17;;
63218;SDS011;49320;52.512;13.448;2024-01-06T06:23:54;34.75;;;24.05;;
63218;SDS011;49320;52.512;13.448;2024-01-06T06:26:21;30.75;;;23.10;;
63218;SDS011;49320;52.512;13.448;2024-01-06T06:28:49;31.02;;;23.92;;
63218;SDS011;49320;52.512;13.448;2024-01-06T06:31:16;30.80;;;21.95;;
63218;SDS011;49320;52.512;13.448;2024-01-06T06:33:43;37.70;;;22.95;;
63218;SDS011;49320;52.512;13.448;2024-01-06T06:36:10;33.83;;;23.67;;
63218;SDS011;49320;52.512;13.448;2024-01-06T06:38:37;30.45;;;23.30;;
63218;SDS011;49320;52.512;13.448;2024-01-06T06:41:04;33.88;;;23.65;;
63218;SDS011;49320;52.512;13.448;2024-01-06T06:43:32;30.10;;;22.27;;
63218;SDS011;49320;52.512;13.448;2024-01-06T06:45:59;30.55;;;21.88;;
63218;SDS011;49320;52.512;13.448;2024-01-06T06:48:27;33.50;;;23.85;;
63218;SDS011;49320;52.512;13.448;2024-01-06T06:50:54;34.05;;;24.10;;
63218;SDS011;49320;52.512;13.448;2024-01-06T06:53:21;38.90;;;24.27;;
63218;SDS011;49320;52.512;13.448;2024-01-06T06:55:48;33.35;;;23.85;;
63218;SDS011;49320;52.512;13.448;2024-01-06T06:58:15;33.55;;;24.85;;
63218;SDS011;49320;52.512;13.448;2024-01-06T07:00:42;32.03;;;21.95;;
63218;SDS011;49320;52.512;13.448;2024-01-06T07:03:09;31.95;;;21.52;;
63218;SDS011;49320;52.512;13.448;2024-01-06T07:05:36;30.75;;;22.80;;
63218;SDS011;49320;52.512;13.448;2024-01-06T07:08:05;33.50;;;23.38;;
63218;SDS011;49320;52.512;13.448;2024-01-06T07:10:32;29.80;;;22.13;;
63218;SDS011;49320;52.512;13.448;2024-01-06T07:12:59;28.88;;;22.08;;
63218;SDS011;49320;52.512;13.448;2024-01-06T07:15:26;32.30;;;23.48;;
63218;SDS011;49320;52.512;13.448;2024-01-06T07:17:53;31.40;;;22.05;;
63218;SDS011;49320;52.512;13.448;2024-01-06T07:20:20;34.60;;;24.55;;
63218;SDS011;49320;52.512;13.448;2024-01-06T07:22:48;33.42;;;23.17;;
63218;SDS011;49320;52.512;13.448;2024-01-06T07:25:15;31.45;;;21.27;;
63218;SDS011;49320;52.512;13.448;2024-01-06T07:27:43;32.58;;;24.23;;
63218;SDS011;49320;52.512;13.448;2024-01-06T07:30:10;42.60;;;26.67;;
63218;SDS011;49320;52.512;13.448;2024-01-06T07:32:38;35.33;;;24.63;;
63218;SDS011;49320;52.512;13.448;2024-01-06T07:35:05;30.90;;;22.65;;
63218;SDS011;49320;52.512;13.448;2024-01-06T07:37:33;33.42;;;23.45;;
63218;SDS011;49320;52.512;13.448;2024-01-06T07:40:01;35.28;;;23.60;;
63218;SDS011;49320;52.512;13.448;2024-01-06T07:42:28;33.53;;;24.40;;
63218;SDS011;49320;52.512;13.448;2024-01-06T07:44:55;31.38;;;24.92;;
63218;SDS011;49320;52.512;13.448;2024-01-06T07:47:21;33.67;;;24.23;;
63218;SDS011;49320;52.512;13.448;2024-01-06T07:49:48;37.28;;;24.73;;
63218;SDS011;49320;52.512;13.448;2024-01-06T07:52:15;33.03;;;22.63;;
63218;SDS011;49320;52.512;13.448;2024-01-06T07:54:43;34.60;;;23.30;;
63218;SDS011;49320;52.512;13.448;2024-01-06T07:57:10;31.80;;;23.25;;
63218;SDS011;49320;52.512;13.448;2024-01-06T07:59:38;31.63;;;24.20;;
63218;SDS011;49320;52.512;13.448;2024-01-06T08:02:05;30.83;;;22.13;;
63218;SDS011;49320;52.512;13.448;2024-01-06T08:04:32;32.15;;;22.10;;
63218;SDS011;49320;52.512;13.448;2024-01-06T08:06:59;38.00;;;25.00;;
63218;SDS011;49320;52.512;13.448;2024-01-06T08:09:27;36.97;;;23.98;;
63218;SDS011;49320;52.512;13.448;2024-01-06T08:11:54;34.80;;;24.85;;
63218;SDS011;49320;52.512;13.448;2024-01-06T08:14:21;34.33;;;22.27;;
63218;SDS011;49320;52.512;13.448;2024-01-06T08:16:48;33.28;;;23.77;;
63218;SDS011;49320;52.512;13.448;2024-01-06T08:19:15;36.13;;;24.30;;
63218;SDS011;49320;52.512;13.448;2024-01-06T08:21:42;34.45;;;23.48;;
63218;SDS011;49320;52.512;13.448;2024-01-06T08:24:10;33.17;;;23.67;;
63218;SDS011;49320;52.512;13.448;2024-01-06T08:26:37;33.15;;;24.13;;
63218;SDS011;49320;52.512;13.448;2024-01-06T08:29:04;36.88;;;24.80;;
63218;SDS011;49320;52.512;13.448;2024-01-06T08:31:31;37.28;;;25.35;;
63218;SDS011;49320;52.512;13.448;2024-01-06T08:33:59;35.20;;;24.23;;
63218;SDS011;49320;52.512;13.448;2024-01-06T08:36:27;33.95;;;23.55;;
63218;SDS011;49320;52.512;13.448;2024-01-06T08:38:54;34.00;;;23.15;;
63218;SDS011;49320;52.512;13.448;2024-01-06T08:41:21;36.47;;;24.67;;
63218;SDS011;49320;52.512;13.448;2024-01-06T08:43:48;34.13;;;23.15;;
63218;SDS011;49320;52.512;13.448;2024-01-06T08:46:15;32.17;;;23.48;;
63218;SDS011;49320;52.512;13.448;2024-01-06T08:48:43;35.08;;;25.25;;
63218;SDS011;49320;52.512;13.448;2024-01-06T08:51:10;33.67;;;24.67;;
63218;SDS011;49320;52.512;13.448;2024-01-06T08:53:37;33.75;;;23.42;;
63218;SDS011;49320;52.512;13.448;2024-01-06T08:56:05;35.72;;;24.20;;
63218;SDS011;49320;52.512;13.448;2024-01-06T08:58:32;31.05;;;23.63;;
63218;SDS011;49320;52.512;13.448;2024-01-06T09:00:59;31.75;;;23.83;;
63218;SDS011;49320;52.512;13.448;2024-01-06T09:03:26;31.80;;;24.13;;
63218;SDS011;49320;52.512;13.448;2024-01-06T09:05:53;31.98;;;22.85;;
63218;SDS011;49320;52.512;13.448;2024-01-06T09:08:24;33.65;;;24.27;;
63218;SDS011;49320;52.512;13.448;2024-01-06T09:10:50;36.22;;;24.40;;
63218;SDS011;49320;52.512;13.448;2024-01-06T09:13:21;34.10;;;23.40;;
63218;SDS011;49320;52.512;13.448;2024-01-06T09:15:50;32.67;;;24.88;;
63218;SDS011;49320;52.512;13.448;2024-01-06T09:18:17;33.63;;;24.02;;
63218;SDS011;49320;52.512;13.448;2024-01-06T09:20:45;34.10;;;24.92;;
63218;SDS011;49320;52.512;13.448;2024-01-06T09:23:14;32.97;;;23.08;;
63218;SDS011;49320;52.512;13.448;2024-01-06T09:25:42;29.80;;;22.40;;
63218;SDS011;49320;52.512;13.448;2024-01-06T09:28:09;31.77;;;24.10;;
63218;SDS011;49320;52.512;13.448;2024-01-06T09:30:37;32.72;;;24.50;;
63218;SDS011;49320;52.512;13.448;2024-01-06T09:33:04;31.88;;;24.02;;
63218;SDS011;49320;52.512;13.448;2024-01-06T09:35:31;30.80;;;23.50;;
63218;SDS011;49320;52.512;13.448;2024-01-06T09:37:59;30.67;;;23.48;;
63218;SDS011;49320;52.512;13.448;2024-01-06T09:40:26;30.63;;;22.95;;
63218;SDS011;49320;52.512;13.448;2024-01-06T09:42:53;31.35;;;23.42;;
63218;SDS011;49320;52.512;13.448;2024-01-06T09:45:20;34.05;;;24.30;;
63218;SDS011;49320;52.512;13.448;2024-01-06T09:47:49;30.42;;;23.27;;
63218;SDS011;49320;52.512;13.448;2024-01-06T09:50:18;31.92;;;23.98;;
63218;SDS011;49320;52.512;13.448;2024-01-06T09:52:46;30.90;;;24.05;;
63218;SDS011;49320;52.512;13.448;2024-01-06T09:55:25;29.27;;;23.35;;
63218;SDS011;49320;52.512;13.448;2024-01-06T09:57:53;32.78;;;24.73;;
63218;SDS011;49320;52.512;13.448;2024-01-06T10:00:21;30.63;;;23.33;;
63218;SDS011;49320;52.512;13.448;2024-01-06T10:02:48;29.05;;;23.65;;
63218;SDS011;49320;52.512;13.448;2024-01-06T10:05:17;28.15;;;22.63;;
63218;SDS011;49320;52.512;13.448;2024-01-06T10:07:44;32.25;;;23.10;;
63218;SDS011;49320;52.512;13.448;2024-01-06T10:10:12;30.27;;;24.05;;
63218;SDS011;49320;52.512;13.448;2024-01-06T10:12:40;31.33;;;25.40;;
63218;SDS011;49320;52.512;13.448;2024-01-06T10:15:09;32.65;;;24.25;;
63218;SDS011;49320;52.512;13.448;2024-01-06T10:17:39;31.00;;;23.15;;
63218;SDS011;49320;52.512;13.448;2024-01-06T10:20:08;29.73;;;22.70;;
63218;SDS011;49320;52.512;13.448;2024-01-06T10:22:37;29.58;;;22.48;;
63218;SDS011;49320;52.512;13.448;2024-01-06T10:25:08;28.55;;;22.90;;
63218;SDS011;49320;52.512;13.448;2024-01-06T10:27:39;31.80;;;25.02;;
63218;SDS011;49320;52.512;13.448;2024-01-06T10:30:08;29.60;;;23.33;;
63218;SDS011;49320;52.512;13.448;2024-01-06T10:32:36;31.27;;;24.60;;
63218;SDS011;49320;52.512;13.448;2024-01-06T10:35:05;32.38;;;24.75;;
63218;SDS011;49320;52.512;13.448;2024-01-06T10:37:33;30.58;;;24.60;;
63218;SDS011;49320;52.512;13.448;2024-01-06T10:40:19;28.48;;;23.70;;
63218;SDS011;49320;52.512;13.448;2024-01-06T10:42:47;30.15;;;22.75;;
63218;SDS011;49320;52.512;13.448;2024-01-06T10:45:14;29.42;;;24.38;;
63218;SDS011;49320;52.512;13.448;2024-01-06T10:47:42;31.17;;;24.02;;
63218;SDS011;49320;52.512;13.448;2024-01-06T10:50:10;27.63;;;23.38;;
63218;SDS011;49320;52.512;13.448;2024-01-06T10:52:39;28.77;;;24.55;;
63218;SDS011;49320;52.512;13.448;2024-01-06T10:55:07;25.70;;;20.90;;
63218;SDS011;49320;52.512;13.448;2024-01-06T10:57:35;30.30;;;23.00;;
63218;SDS011;49320;52.512;13.448;2024-01-06T11:00:04;29.85;;;22.98;;
63218;SDS011;49320;52.512;13.448;2024-01-06T11:02:32;28.27;;;22.85;;
63218;SDS011;49320;52.512;13.448;2024-01-06T11:05:00;27.17;;;22.77;;
63218;SDS011;49320;52.512;13.448;2024-01-06T11:07:28;28.95;;;23.33;;
63218;SDS011;49320;52.512;13.448;2024-01-06T11:10:02;28.27;;;23.75;;
63218;SDS011;49320;52.512;13.448;2024-01-06T11:12:37;28.15;;;22.50;;
63218;SDS011;49320;52.512;13.448;2024-01-06T11:15:04;29.35;;;24.15;;
63218;SDS011;49320;52.512;13.448;2024-01-06T11:20:31;30.08;;;23.42;;
63218;SDS011;49320;52.512;13.448;2024-01-06T11:25:48;29.73;;;24.17;;
63218;SDS011;49320;52.512;13.448;2024-01-06T11:28:16;30.98;;;23.65;;
63218;SDS011;49320;52.512;13.448;2024-01-06T11:30:43;29.73;;;24.88;;
63218;SDS011;49320;52.512;13.448;2024-01-06T11:33:10;29.52;;;23.55;;
63218;SDS011;49320;52.512;13.448;2024-01-06T11:35:37;28.13;;;22.00;;
63218;SDS011;49320;52.512;13.448;2024-01-06T11:38:06;27.20;;;22.75;;
63218;SDS011;49320;52.512;13.448;2024-01-06T11:40:34;26.10;;;23.05;;
63218;SDS011;49320;52.512;13.448;2024-01-06T11:43:06;28.58;;;22.77;;
63218;SDS011;49320;52.512;13.448;2024-01-06T11:45:43;28.67;;;23.33;;
63218;SDS011;49320;52.512;13.448;2024-01-06T11:48:11;27.70;;;22.55;;
63218;SDS011;49320;52.512;13.448;2024-01-06T11:50:39;24.40;;;20.83;;
63218;SDS011;49320;52.512;13.448;2024-01-06T11:53:08;25.17;;;21.23;;
63218;SDS011;49320;52.512;13.448;2024-01-06T11:55:38;26.95;;;21.58;;
63218;SDS011;49320;52.512;13.448;2024-01-06T11:58:06;26.95;;;22.02;;
63218;SDS011;49320;52.512;13.448;2024-01-06T12:00:33;27.52;;;22.42;;
63218;SDS011;49320;52.512;13.448;2024-01-06T12:03:03;25.30;;;22.25;;
63218;SDS011;49320;52.512;13.448;2024-01-06T12:05:30;27.58;;;21.83;;
63218;SDS011;49320;52.512;13.448;2024-01-06T12:07:58;26.90;;;23.27;;
63218;SDS011;49320;52.512;13.448;2024-01-06T12:10:27;25.20;;;21.27;;
63218;SDS011;49320;52.512;13.448;2024-01-06T12:13:02;26.10;;;21.83;;
63218;SDS011;49320;52.512;13.448;2024-01-06T12:15:32;24.98;;;21.80;;
63218;SDS011;49320;52.512;13.448;2024-01-06T12:17:59;28.15;;;22.88;;
63218;SDS011;49320;52.512;13.448;2024-01-06T12:20:30;28.52;;;22.40;;
63218;SDS011;49320;52.512;13.448;2024-01-06T12:22:58;27.92;;;22.52;;
63218;SDS011;49320;52.512;13.448;2024-01-06T12:25:26;28.80;;;22.25;;
63218;SDS011;49320;52.512;13.448;2024-01-06T12:27:55;27.90;;;22.88;;
63218;SDS011;49320;52.512;13.448;2024-01-06T12:30:22;28.75;;;23.33;;
63218;SDS011;49320;52.512;13.448;2024-01-06T12:32:50;28.73;;;22.75;;
63218;SDS011;49320;52.512;13.448;2024-01-06T12:35:21;28.65;;;22.27;;
63218;SDS011;49320;52.512;13.448;2024-01-06T12:37:49;32.47;;;24.25;;
63218;SDS011;49320;52.512;13.448;2024-01-06T12:40:17;27.95;;;22.33;;
63218;SDS011;49320;52.512;13.448;2024-01-06T12:42:46;28.00;;;23.33;;
63218;SDS011;49320;52.512;13.448;2024-01-06T12:45:13;28.45;;;23.30;;
63218;SDS011;49320;52.512;13.448;2024-01-06T12:47:42;28.25;;;23.17;;
63218;SDS011;49320;52.512;13.448;2024-01-06T12:50:10;28.38;;;23.25;;
63218;SDS011;49320;52.512;13.448;2024-01-06T12:52:37;26.40;;;21.77;;
63218;SDS011;49320;52.512;13.448;2024-01-06T12:55:06;25.85;;;21.52;;
63218;SDS011;49320;52.512;13.448;2024-01-06T12:57:34;30.75;;;23.75;;
63218;SDS011;49320;52.512;13.448;2024-01-06T13:00:02;29.10;;;22.92;;
63218;SDS011;49320;52.512;13.448;2024-01-06T13:02:30;26.40;;;21.30;;
63218;SDS011;49320;52.512;13.448;2024-01-06T13:04:57;23.25;;;19.80;;
63218;SDS011;49320;52.512;13.448;2024-01-06T13:07:24;28.05;;;21.85;;
63218;SDS011;49320;52.512;13.448;2024-01-06T13:09:52;26.35;;;21.77;;
63218;SDS011;49320;52.512;13.448;2024-01-06T13:12:19;25.08;;;20.48;;
63218;SDS011;49320;52.512;13.448;2024-01-06T13:14:46;26.00;;;20.30;;
63218;SDS011;49320;52.512;13.448;2024-01-06T13:17:14;26.35;;;20.60;;
63218;SDS011;49320;52.512;13.448;2024-01-06T13:19:41;26.80;;;21.25;;
63218;SDS011;49320;52.512;13.448;2024-01-06T13:22:08;24.90;;;20.67;;
63218;SDS011;49320;52.512;13.448;2024-01-06T13:24:35;26.75;;;20.73;;
63218;SDS011;49320;52.512;13.448;2024-01-06T13:27:04;28.05;;;20.80;;
63218;SDS011;49320;52.512;13.448;2024-01-06T13:29:31;25.77;;;20.92;;
63218;SDS011;49320;52.512;13.448;2024-01-06T13:31:59;23.95;;;19.17;;
63218;SDS011;49320;52.512;13.448;2024-01-06T13:34:27;24.23;;;19.67;;
63218;SDS011;49320;52.512;13.448;2024-01-06T13:36:56;25.73;;;21.00;;
63218;SDS011;49320;52.512;13.448;2024-01-06T13:39:23;23.13;;;19.30;;
63218;SDS011;49320;52.512;13.448;2024-01-06T13:41:51;26.42;;;20.20;;
63218;SDS011;49320;52.512;13.448;2024-01-06T13:44:18;25.05;;;20.52;;
63218;SDS011;49320;52.512;13.448;2024-01-06T13:46:45;23.98;;;19.90;;
63218;SDS011;49320;52.512;13.448;2024-01-06T13:49:12;23.23;;;18.75;;
63218;SDS011;49320;52.512;13.448;2024-01-06T13:51:40;21.35;;;19.00;;
63218;SDS011;49320;52.512;13.448;2024-01-06T13:54:07;23.15;;;18.88;;
63218;SDS011;49320;52.512;13.448;2024-01-06T13:56:35;23.85;;;18.55;;
63218;SDS011;49320;52.512;13.448;2024-01-06T13:59:05;21.83;;;18.25;;
63218;SDS011;49320;52.512;13.448;2024-01-06T14:01:32;24.85;;;19.15;;
63218;SDS011;49320;52.512;13.448;2024-01-06T14:04:00;23.10;;;19.48;;
63218;SDS011;49320;52.512;13.448;2024-01-06T14:06:27;24.38;;;20.25;;
63218;SDS011;49320;52.512;13.448;2024-01-06T14:08:57;26.08;;;19.80;;
63218;SDS011;49320;52.512;13.448;2024-01-06T14:11:25;22.30;;;19.48;;
63218;SDS011;49320;52.512;13.448;2024-01-06T14:13:53;22.10;;;19.35;;
63218;SDS011;49320;52.512;13.448;2024-01-06T14:16:20;21.60;;;18.65;;